Time;durP1;ratioP1;P1;durP2;ratioP2;P2;SDS_P1;SDS_P2;PMS_P1;PMS_P2;Temp;Humidity;BMP_temperature;BMP_pressure;BME280_temperature;BME280_humidity;BME280_pressure;Samples;Min_cycle;Max_cycle;Signal;HPM_P1;HPM_P2
2021/09/22 00:00:14;;;;;;;9.55;5.20;;;12.30;90.80;;;9.93;96.02;101940.09;5010812;28;20081;-70
2021/09/22 00:02:41;;;;;;;10.43;5.25;;;12.30;90.80;;;9.97;95.79;101938.81;5010486;28;20046;-69
2021/09/22 00:05:15;;;;;;;8.93;5.00;;;12.30;90.90;;;9.97;95.64;101936.94;4992582;28;20054;-69
2021/09/22 00:07:45;;;;;;;9.52;5.30;;;12.30;90.90;;;9.93;95.45;101934.66;4993257;28;20510;-69
2021/09/22 00:10:18;;;;;;;9.48;5.10;;;12.20;90.80;;;9.93;95.69;101945.53;5011158;28;20077;-69
2021/09/22 00:12:48;;;;;;;9.45;4.82;;;12.20;90.90;;;9.91;95.49;101931.22;5010336;28;20042;-68
2021/09/22 00:15:20;;;;;;;10.45;5.22;;;12.20;90.80;;;9.88;95.46;101926.06;4991134;28;20045;-69
2021/09/22 00:17:48;;;;;;;10.05;5.32;;;12.20;90.80;;;9.87;95.26;101936.09;5008736;28;20472;-69
2021/09/22 00:20:17;;;;;;;11.57;5.65;;;12.20;90.80;;;9.81;95.11;101935.84;5009531;28;20571;-68
2021/09/22 00:22:48;;;;;;;11.70;5.90;;;12.10;90.80;;;9.75;95.64;101938.13;5018975;28;20052;-68
2021/09/22 00:25:17;;;;;;;8.50;5.10;;;12.10;90.70;;;9.78;95.76;101937.81;5029946;28;20057;-68
2021/09/22 00:27:45;;;;;;;12.23;5.40;;;12.10;91.00;;;9.81;95.49;101944.00;5030773;28;20052;-69
2021/09/22 00:32:54;;;;;;;10.40;5.05;;;12.10;90.90;;;9.73;95.54;101945.56;5013140;28;20079;-68
2021/09/22 00:35:30;;;;;;;8.73;5.18;;;12.00;90.90;;;9.69;95.79;101944.13;5012374;28;20041;-68
2021/09/22 00:37:59;;;;;;;10.15;5.20;;;12.00;90.90;;;9.70;95.53;101940.41;5133401;22;20049;-85
2021/09/22 00:40:27;;;;;;;11.93;5.20;;;12.00;90.90;;;9.69;95.65;101938.72;5087619;28;20052;-86
2021/09/22 00:42:54;;;;;;;9.07;4.63;;;12.00;90.90;;;9.72;95.36;101929.41;5089468;28;20563;-86
2021/09/22 00:45:23;;;;;;;12.50;5.57;;;12.00;90.90;;;9.66;95.61;101938.13;5087828;28;20143;-85
2021/09/22 00:47:50;;;;;;;9.10;4.90;;;12.00;91.00;;;9.62;95.24;101934.84;5089528;28;20058;-86
2021/09/22 00:50:32;;;;;;;8.02;5.15;;;11.90;91.00;;;9.65;95.35;101934.53;5088082;28;20131;-86
2021/09/22 00:53:02;;;;;;;8.93;4.78;;;11.90;91.10;;;9.66;95.03;101930.81;5088072;28;20457;-86
2021/09/22 00:55:30;;;;;;;8.50;4.72;;;11.90;91.10;;;9.57;94.89;101920.81;5089295;28;20689;-85
2021/09/22 00:58:05;;;;;;;9.10;5.18;;;11.90;91.00;;;9.61;95.39;101927.66;5087923;28;20587;-86
2021/09/22 01:00:37;;;;;;;10.30;5.40;;;11.90;91.10;;;9.59;95.66;101922.41;5087625;28;20398;-85
2021/09/22 01:03:06;;;;;;;9.82;5.50;;;11.80;91.00;;;9.57;95.56;101928.97;5087901;28;20095;-86
2021/09/22 01:05:37;;;;;;;8.32;4.82;;;11.80;91.10;;;9.54;95.74;101926.56;5084464;28;20040;-86
2021/09/22 01:08:10;;;;;;;9.73;5.25;;;11.80;91.20;;;9.56;95.64;101916.38;5069123;28;20044;-86
2021/09/22 01:10:38;;;;;;;11.35;6.07;;;11.80;91.20;;;9.48;96.13;101918.94;5074442;28;20043;-86
2021/09/22 01:13:06;;;;;;;9.68;5.47;;;11.80;91.30;;;9.48;96.16;101913.50;5089193;28;20075;-86
2021/09/22 01:15:36;;;;;;;8.27;5.57;;;11.80;91.30;;;9.46;95.74;101915.50;5104525;28;20435;-86
2021/09/22 01:18:10;;;;;;;10.70;5.32;;;11.70;91.40;;;9.33;96.30;101921.25;5087616;28;20044;-86
2021/09/22 01:20:40;;;;;;;8.98;4.90;;;11.70;91.40;;;9.25;96.77;101923.78;5088839;28;20354;-86
2021/09/22 01:23:13;;;;;;;8.90;5.15;;;11.70;91.50;;;9.36;97.02;101920.94;5104456;28;20089;-86
2021/09/22 01:25:44;;;;;;;10.35;5.05;;;11.70;91.70;;;9.34;96.28;101918.38;5087386;28;20052;-85
2021/09/22 01:28:14;;;;;;;11.70;5.25;;;11.70;91.60;;;9.26;96.60;101914.66;5087422;28;20483;-86
2021/09/22 01:30:47;;;;;;;10.45;5.38;;;11.70;91.60;;;9.27;97.07;101922.69;5104173;28;20047;-85
2021/09/22 01:33:20;;;;;;;8.65;5.18;;;11.60;91.60;;;9.26;96.21;101915.50;5088644;28;20044;-87
2021/09/22 01:35:53;;;;;;;9.02;5.13;;;11.50;91.60;;;9.25;96.53;101918.38;5087312;28;20048;-86
2021/09/22 01:38:27;;;;;;;;;;;11.60;91.70;;;9.20;97.35;101916.94;5088622;28;20044;-86
2021/09/22 01:41:09;;;;;;;7.28;4.60;;;11.60;91.50;;;9.14;97.00;101914.78;5087106;28;20015;-85
2021/09/22 01:43:39;;;;;;;9.43;5.55;;;11.60;91.60;;;9.18;97.03;101921.66;5087368;28;20040;-86
2021/09/22 01:46:11;;;;;;;8.48;5.30;;;11.50;91.70;;;9.21;96.60;101917.78;5087302;28;20044;-86
2021/09/22 01:49:00;;;;;;;8.55;4.93;;;11.50;91.70;;;9.23;96.43;101904.91;5069794;28;20845;-86
2021/09/22 01:51:29;;;;;;;8.90;5.25;;;11.50;91.70;;;9.26;96.50;101901.09;5103947;28;20047;-86
2021/09/22 01:54:10;;;;;;;8.27;5.28;;;11.50;91.70;;;9.25;96.59;101902.06;5104402;28;20163;-86
2021/09/22 01:56:41;;;;;;;10.07;5.30;;;11.50;91.90;;;9.25;96.34;101908.34;5087132;28;20152;-86
2021/09/22 01:59:10;;;;;;;9.95;5.20;;;11.50;92.00;;;9.27;96.19;101905.50;5087203;28;20043;-85
2021/09/22 02:02:09;;;;;;;8.50;5.15;;;11.50;91.90;;;9.26;96.15;101904.66;5074742;28;20052;-85
2021/09/22 02:05:01;;;;;;;10.95;5.50;;;11.50;92.00;;;9.21;96.69;101890.63;5103760;28;20052;-86
2021/09/22 02:07:31;;;;;;;10.77;5.97;;;11.50;92.00;;;9.20;96.17;101888.91;5069974;28;20613;-86
2021/09/22 02:10:05;;;;;;;10.15;5.40;;;11.40;91.90;;;9.22;96.78;101886.06;5103976;28;20076;-85
2021/09/22 02:12:35;;;;;;;18.50;6.30;;;11.40;92.00;;;9.23;96.33;101883.19;5086740;28;20048;-86
2021/09/22 02:15:08;;;;;;;14.13;5.82;;;11.40;92.00;;;9.21;95.97;101879.75;5086957;28;20051;-85
2021/09/22 02:17:51;;;;;;;13.63;6.75;;;11.40;92.00;;;9.13;96.48;101874.19;5103617;28;20697;-86
2021/09/22 02:20:22;;;;;;;10.07;6.25;;;11.40;92.00;;;9.13;96.55;101871.47;5086864;28;20048;-86
2021/09/22 02:23:02;;;;;;;8.65;5.47;;;11.40;92.10;;;9.09;96.12;101870.03;5042505;28;20048;-86
2021/09/22 02:25:31;;;;;;;13.38;6.05;;;11.40;92.10;;;9.07;96.82;101874.75;5086952;28;20079;-86
2021/09/22 02:28:01;;;;;;;10.13;5.97;;;11.30;92.00;;;9.09;96.78;101870.88;5086685;28;20048;-86
2021/09/22 02:30:28;;;;;;;13.68;7.00;;;11.30;92.10;;;9.04;97.05;101873.16;5083070;28;20040;-85
2021/09/22 02:32:59;;;;;;;;;;;11.30;92.30;;;8.95;97.57;101868.59;5067024;28;20044;-86
2021/09/22 02:35:29;;;;;;;11.68;6.22;;;11.30;92.30;;;8.88;97.05;101879.16;5066451;28;19924;-86
2021/09/22 02:38:17;;;;;;;11.90;6.53;;;11.30;92.20;;;8.75;96.82;101881.25;5066981;28;20059;-85
2021/09/22 02:41:08;;;;;;;12.02;6.18;;;11.30;92.10;;;8.71;97.79;101866.25;5074500;28;20385;-86
2021/09/22 02:43:39;;;;;;;14.45;6.25;;;11.20;92.10;;;8.71;97.86;101872.53;5086220;28;20087;-84
2021/09/22 02:46:06;;;;;;;9.50;5.45;;;11.20;92.10;;;8.79;97.52;101879.97;5053146;28;20079;-85
2021/09/22 02:48:51;;;;;;;;;;;11.20;92.10;;;8.84;96.97;101880.44;5103733;28;20124;-86
2021/09/22 02:51:20;;;;;;;10.82;5.55;;;11.20;92.10;;;8.77;97.14;101871.13;5087738;28;19923;-86
2021/09/22 02:53:51;;;;;;;9.23;5.30;;;11.10;92.10;;;8.79;97.14;101875.41;5086483;28;20044;-85
2021/09/22 02:56:21;;;;;;;10.95;5.97;;;11.10;92.30;;;8.81;97.28;101877.97;5070047;28;20098;-86
2021/09/22 02:58:50;;;;;;;10.20;6.05;;;11.10;92.20;;;8.83;97.40;101881.41;5088098;28;20102;-86
2021/09/22 03:01:17;;;;;;;16.38;6.63;;;11.10;92.30;;;8.82;97.01;101879.72;5066404;28;20064;-85
2021/09/22 03:03:46;;;;;;;11.18;6.70;;;11.10;92.40;;;8.77;96.67;101881.97;5051893;28;20055;-86
2021/09/22 03:06:14;;;;;;;11.13;6.28;;;11.20;92.40;;;8.75;97.73;101883.97;5068482;28;20576;-86
2021/09/22 03:08:41;;;;;;;12.00;6.90;;;11.00;92.30;;;8.77;97.71;101881.97;5051647;28;20068;-85
2021/09/22 03:11:10;;;;;;;11.60;7.05;;;11.00;92.40;;;8.79;97.59;101879.97;5051273;28;20118;-86
2021/09/22 03:14:38;;;;;;;10.40;6.05;;;11.00;92.50;;;8.76;96.82;101880.28;5068291;28;20048;-86
2021/09/22 03:17:22;;;;;;;12.02;6.53;;;11.00;92.50;;;8.76;97.33;101883.00;5051262;28;20048;-86
2021/09/22 03:19:56;;;;;;;12.68;6.07;;;11.00;92.50;;;8.74;97.51;101887.72;5051469;28;20052;-85
2021/09/22 03:22:26;;;;;;;14.30;6.90;;;11.00;92.60;;;8.72;97.75;101881.53;5050973;28;20139;-85
2021/09/22 03:25:15;;;;;;;12.70;6.78;;;11.00;92.60;;;8.65;97.88;101883.94;5051396;28;20057;-86
2021/09/22 03:27:45;;;;;;;22.05;6.68;;;11.00;92.70;;;8.68;97.40;101880.09;5068173;28;20072;-86
2021/09/22 03:30:24;;;;;;;13.15;6.63;;;11.00;92.70;;;8.54;97.38;101881.34;5035208;28;20476;-86
2021/09/22 03:33:21;;;;;;;9.90;5.57;;;11.00;92.50;;;8.52;97.81;101881.47;5079170;28;20469;-85
2021/09/22 03:35:49;;;;;;;10.77;5.43;;;10.90;92.50;;;8.47;97.35;101882.88;5073066;28;20086;-86
2021/09/22 03:38:20;;;;;;;11.40;5.20;;;10.90;92.50;;;8.52;96.94;101886.91;5089513;28;20048;-86
2021/09/22 03:40:54;;;;;;;10.52;5.25;;;10.90;92.40;;;8.46;97.89;101884.75;5089115;28;20239;-86
2021/09/22 03:43:22;;;;;;;9.93;5.50;;;10.90;92.50;;;8.48;97.60;101880.03;5089187;28;20044;-85
2021/09/22 03:45:50;;;;;;;11.20;5.18;;;10.90;92.50;;;8.51;97.54;101881.59;5089299;28;20073;-86
2021/09/22 03:48:19;;;;;;;11.05;5.50;;;10.90;92.50;;;8.54;96.92;101878.63;5037703;28;20076;-86
2021/09/22 03:50:48;;;;;;;11.65;5.93;;;10.90;92.60;;;8.48;97.89;101880.03;5072115;28;20578;-85
2021/09/22 03:53:21;;;;;;;11.40;5.80;;;10.90;92.70;;;8.48;97.37;101877.31;5089087;28;20048;-86
2021/09/22 03:55:50;;;;;;;8.60;5.18;;;10.80;92.50;;;8.52;97.69;101872.50;5072583;28;20056;-86
2021/09/22 03:58:21;;;;;;;18.63;5.80;;;10.80;92.60;;;8.54;97.12;101873.22;5090084;28;20032;-85
2021/09/22 04:00:52;;;;;;;12.43;5.50;;;10.80;92.60;;;8.52;97.66;101873.34;5070896;28;20056;-88
2021/09/22 04:03:21;;;;;;;12.33;5.30;;;10.80;92.60;;;8.54;96.74;101875.91;5069122;28;20130;-83
2021/09/22 04:05:50;;;;;;;11.00;4.90;;;10.80;92.60;;;8.56;96.93;101876.63;5068728;28;20048;-84
2021/09/22 04:08:24;;;;;;;10.10;5.35;;;10.80;92.60;;;8.45;97.57;101871.31;5068741;28;20070;-84
2021/09/22 04:10:52;;;;;;;8.18;5.13;;;10.80;92.60;;;8.38;97.81;101876.41;5068387;28;20059;-83
2021/09/22 04:13:32;;;;;;;9.57;5.68;;;10.80;92.60;;;8.35;97.62;101876.66;5069339;28;20044;-83
2021/09/22 04:16:04;;;;;;;10.15;5.63;;;10.80;92.70;;;8.35;97.75;101884.81;5068629;28;20052;-83
2021/09/22 04:18:39;;;;;;;16.33;6.45;;;10.80;92.70;;;8.34;97.67;101885.78;5085232;28;20067;-83
2021/09/22 04:21:08;;;;;;;11.93;5.53;;;10.80;92.80;;;8.34;98.28;101893.94;5084960;28;20547;-83
2021/09/22 04:23:36;;;;;;;13.30;6.25;;;10.70;92.70;;;8.31;98.65;101878.78;5068339;28;20067;-83
2021/09/22 04:26:07;;;;;;;13.27;6.50;;;10.70;92.90;;;8.37;98.91;101882.81;5069792;28;20079;-83
2021/09/22 04:28:36;;;;;;;10.30;5.93;;;10.70;93.00;;;8.33;98.25;101884.94;5068112;28;20484;-83
2021/09/22 04:34:24;;;;;;;13.13;6.10;;;10.70;92.90;;;8.35;98.44;101892.94;5089910;28;20101;-83
2021/09/22 04:37:10;;;;;;;12.52;6.03;;;10.70;92.80;;;8.32;98.66;101887.78;5090271;28;20067;-83
2021/09/22 04:39:58;;;;;;;12.32;6.20;;;10.70;92.90;;;8.29;97.85;101886.22;5089909;28;20120;-83
2021/09/22 04:42:43;;;;;;;14.55;5.88;;;10.70;92.80;;;8.25;98.26;101886.63;5089532;28;20063;-83
2021/09/22 04:45:30;;;;;;;8.75;5.00;;;10.70;92.80;;;8.30;97.55;101889.78;5088550;28;20117;-83
2021/09/22 04:48:20;;;;;;;13.93;6.10;;;10.60;92.70;;;8.31;97.46;101883.38;5091160;28;20781;-84
2021/09/22 04:51:06;;;;;;;12.40;5.78;;;10.60;92.80;;;8.28;97.47;101878.22;5052761;28;20059;-84
2021/09/22 04:53:54;;;;;;;10.13;5.80;;;10.60;92.80;;;8.23;97.98;101887.59;5077757;28;20137;-82
2021/09/22 04:56:41;;;;;;;10.60;6.10;;;10.60;92.70;;;8.26;97.80;101877.47;5082427;28;20051;-87
2021/09/22 04:59:31;;;;;;;9.13;5.63;;;10.60;92.90;;;8.19;97.80;101883.47;5056852;28;20131;-86
2021/09/22 05:02:17;;;;;;;12.77;6.13;;;10.60;92.80;;;8.27;97.32;101885.50;5087695;28;20544;-86
2021/09/22 05:05:06;;;;;;;12.32;6.30;;;10.50;92.80;;;8.22;97.53;101882.31;5089259;28;20058;-86
2021/09/22 05:07:52;;;;;;;11.57;5.97;;;10.50;92.90;;;8.26;97.53;101880.19;5089506;28;20063;-87
2021/09/22 05:10:39;;;;;;;11.40;6.43;;;10.50;93.00;;;8.20;98.11;101887.88;5076893;28;20511;-87
2021/09/22 05:13:27;;;;;;;14.30;6.43;;;10.50;93.10;;;8.26;97.81;101891.03;5091833;28;20109;-87
2021/09/22 05:16:13;;;;;;;10.98;5.82;;;10.50;93.10;;;8.19;97.58;101894.31;5089116;28;20055;-87
2021/09/22 05:18:59;;;;;;;10.25;5.90;;;10.50;93.30;;;8.14;97.62;101907.41;5085573;28;20059;-86
2021/09/22 05:21:50;;;;;;;10.63;6.25;;;10.50;93.20;;;8.14;97.88;101901.13;5087950;28;20062;-86
2021/09/22 05:24:43;;;;;;;10.15;5.90;;;10.50;93.40;;;8.15;97.99;101903.72;5088643;28;20453;-88
2021/09/22 05:27:29;;;;;;;11.70;5.55;;;10.50;93.30;;;8.12;97.90;101905.81;5086585;28;20407;-86
2021/09/22 05:33:18;;;;;;;12.40;7.00;;;10.40;93.10;;;8.19;98.09;101901.59;5088767;28;20866;-86
2021/09/22 05:36:05;;;;;;;12.43;6.55;;;10.50;93.40;;;8.23;98.19;101912.03;5089056;28;20125;-86
2021/09/22 05:41:53;;;;;;;;;;;10.50;93.60;;;8.32;98.88;101912.19;5086911;28;20055;-87
2021/09/22 05:44:47;;;;;;;20.67;7.95;;;10.50;93.70;;;8.44;98.47;101918.44;5088686;28;19931;-88
2021/09/22 05:47:34;;;;;;;13.95;7.25;;;10.60;93.80;;;8.48;98.38;101920.75;5088831;28;20071;-87
2021/09/22 05:50:21;;;;;;;18.70;8.95;;;10.60;93.70;;;8.52;97.99;101924.88;5087372;28;20655;-87
2021/09/22 05:53:07;;;;;;;17.65;8.38;;;10.60;93.70;;;8.66;99.07;101920.09;5088734;28;20132;-87
2021/09/22 05:55:55;;;;;;;20.40;7.88;;;10.70;93.80;;;8.78;98.47;101927.16;5087819;28;20062;-87
2021/09/22 05:58:41;;;;;;;16.92;7.50;;;10.70;94.00;;;8.83;98.76;101924.00;5084283;28;20531;-87
2021/09/22 06:01:28;;;;;;;14.30;7.20;;;10.70;93.90;;;8.90;98.26;101920.59;5090822;28;20050;-87
2021/09/22 06:04:15;;;;;;;16.48;7.20;;;10.80;94.10;;;8.92;98.19;101913.16;5087402;28;20070;-87
2021/09/22 06:07:01;;;;;;;18.08;7.90;;;10.80;94.30;;;8.99;98.10;101919.75;5088011;28;20118;-88
2021/09/22 06:09:47;;;;;;;14.52;7.03;;;10.90;94.30;;;9.13;98.32;101914.94;5087763;28;20066;-87
2021/09/22 06:12:29;;;;;;;16.63;7.53;;;10.90;94.40;;;9.25;97.96;101905.63;5085750;28;20531;-87
2021/09/22 06:14:57;;;;;;;17.13;7.57;;;10.90;94.30;;;9.34;97.62;101909.38;5086827;28;20055;-86
2021/09/22 06:17:25;;;;;;;17.70;8.10;;;11.00;94.50;;;9.50;97.81;101909.66;5087798;28;20125;-90
2021/09/22 06:19:54;;;;;;;16.83;7.80;;;11.10;94.60;;;9.64;97.15;101911.09;5017015;28;20161;-89
2021/09/22 06:22:25;;;;;;;16.58;9.13;;;11.10;94.70;;;9.78;96.32;101916.06;5082373;28;20520;-89
2021/09/22 06:24:53;;;;;;;20.23;8.95;;;11.20;94.60;;;9.87;96.62;101924.38;5079972;28;20121;-87
2021/09/22 06:27:21;;;;;;;17.05;7.40;;;11.30;94.90;;;9.93;96.68;101912.91;5068117;28;20072;-91
2021/09/22 06:29:53;;;;;;;18.27;8.18;;;11.40;94.90;;;9.95;96.52;101921.78;5084552;28;20046;-89
2021/09/22 06:32:21;;;;;;;15.50;7.68;;;11.40;94.70;;;9.90;97.08;101924.06;5059481;28;20076;-89
2021/09/22 06:35:12;;;;;;;16.70;8.13;;;11.50;94.90;;;10.02;97.11;101930.22;5066021;28;20212;-88
2021/09/22 06:41:14;;;;;;;28.63;8.27;;;11.60;94.80;;;10.27;95.61;101926.84;5103414;27;20402;-68
2021/09/22 06:43:48;;;;;;;25.65;9.35;;;11.70;94.70;;;10.39;95.98;101924.84;5063047;28;20443;-67
2021/09/22 06:46:18;;;;;;;24.33;9.30;;;11.80;94.80;;;10.44;96.78;101927.13;5064396;28;20049;-68
2021/09/22 06:48:46;;;;;;;17.98;8.25;;;11.80;95.00;;;10.52;97.36;101919.91;5062970;28;20041;-67
2021/09/22 06:51:17;;;;;;;18.98;7.97;;;11.90;95.40;;;10.64;97.78;101922.44;5067226;28;20052;-68
2021/09/22 06:53:45;;;;;;;17.58;8.55;;;12.00;95.30;;;10.74;97.99;101923.28;5082898;28;20520;-68
2021/09/22 06:56:16;;;;;;;15.95;7.80;;;12.10;95.70;;;10.82;98.09;101919.78;5083137;28;20139;-68
2021/09/22 06:58:47;;;;;;;17.25;7.90;;;12.10;95.70;;;10.83;98.29;101927.78;5081723;28;20048;-67
2021/09/22 07:01:15;;;;;;;15.55;7.63;;;12.30;95.90;;;10.86;98.82;101922.03;5082176;28;20259;-68
2021/09/22 07:03:46;;;;;;;16.55;8.65;;;12.20;95.80;;;10.99;99.25;101927.16;5064266;28;20052;-67
2021/09/22 07:06:14;;;;;;;19.33;8.52;;;12.40;95.80;;;11.13;98.69;101932.06;5063810;28;20044;-68
2021/09/22 07:08:42;;;;;;;17.42;8.80;;;12.50;96.00;;;11.27;98.67;101933.41;5066771;28;20074;-68
2021/09/22 07:14:00;;;;;;;19.00;9.40;;;12.60;96.30;;;11.55;98.66;101928.72;5063864;28;20064;-68
2021/09/22 07:16:30;;;;;;;26.63;10.18;;;12.70;96.50;;;11.69;99.24;101935.53;5073375;28;20044;-67
2021/09/22 07:18:59;;;;;;;24.30;11.88;;;12.80;96.80;;;11.76;99.92;101929.44;5082154;28;20579;-68
2021/09/22 07:21:28;;;;;;;20.48;11.48;;;12.90;96.90;;;11.84;100.00;101930.38;5081014;28;20036;-68
2021/09/22 07:23:57;;;;;;;26.05;12.30;;;13.00;96.80;;;11.99;99.05;101933.38;5079916;28;20046;-68
2021/09/22 07:26:25;;;;;;;28.35;12.80;;;13.10;96.80;;;12.15;98.31;101929.06;5053428;28;20059;-68
2021/09/22 07:28:55;;;;;;;25.58;14.32;;;13.20;96.70;;;12.31;97.59;101932.75;5062015;28;20056;-68
2021/09/22 07:31:27;;;;;;;28.92;14.77;;;13.30;96.90;;;12.47;96.49;101933.88;5080446;28;20598;-68
2021/09/22 07:33:55;;;;;;;33.35;16.05;;;13.40;96.50;;;12.64;95.64;101940.28;5083969;28;20055;-68
2021/09/22 07:36:24;;;;;;;25.33;15.27;;;13.50;96.50;;;12.78;96.21;101944.28;5065432;28;20052;-68
2021/09/22 07:38:54;;;;;;;25.63;15.10;;;13.60;96.50;;;12.91;94.43;101945.53;5032815;28;20063;-67
2021/09/22 07:41:22;;;;;;;26.63;14.88;;;13.70;96.60;;;13.08;93.57;101942.88;5081886;28;20040;-68
2021/09/22 07:43:54;;;;;;;27.25;15.50;;;13.80;96.10;;;13.16;93.03;101945.63;5083327;28;20040;-68
2021/09/22 07:49:06;;;;;;;27.42;14.70;;;14.00;95.20;;;13.34;91.54;101952.88;5589055;22;19935;-72
2021/09/22 07:51:34;;;;;;;31.33;15.25;;;14.10;95.30;;;13.46;90.84;101951.50;5032660;28;20045;-68
2021/09/22 07:54:06;;;;;;;28.55;15.43;;;14.20;95.10;;;13.52;89.49;101942.66;5018583;28;20056;-69
2021/09/22 07:56:33;;;;;;;28.95;14.93;;;14.30;94.60;;;13.61;89.93;101936.16;4990894;28;20046;-69
2021/09/22 07:59:04;;;;;;;29.42;15.77;;;14.40;94.30;;;13.68;89.44;101939.91;5009267;28;20042;-69
2021/09/22 08:01:42;;;;;;;35.83;18.33;;;14.50;94.40;;;13.81;89.52;101935.81;5010060;28;20060;-68
2021/09/22 08:04:10;;;;;;;33.08;16.15;;;14.50;94.20;;;13.90;88.57;101929.34;5000196;28;20112;-68
2021/09/22 08:06:41;;;;;;;28.75;15.73;;;14.60;94.00;;;13.97;88.02;101937.69;4997953;28;20053;-68
2021/09/22 08:09:11;;;;;;;29.98;15.35;;;14.70;93.00;;;13.99;87.74;101939.25;5008850;28;20068;-68
2021/09/22 08:11:40;;;;;;;28.55;14.63;;;14.80;93.10;;;14.04;87.64;101933.25;4990585;28;20589;-69
2021/09/22 08:14:10;;;;;;;29.67;15.40;;;14.80;92.90;;;14.07;87.86;101947.44;5010585;28;20069;-69
2021/09/22 08:16:39;;;;;;;25.05;14.85;;;14.90;92.90;;;14.11;87.38;101944.34;5010048;28;20050;-69
2021/09/22 08:19:08;;;;;;;25.23;14.65;;;14.90;92.50;;;14.18;87.25;101940.75;5009442;28;20130;-69
2021/09/22 08:21:38;;;;;;;26.50;14.15;;;15.00;92.50;;;14.23;86.69;101937.50;5002038;28;20046;-69
2021/09/22 08:24:06;;;;;;;22.73;13.65;;;15.10;92.20;;;14.34;86.69;101934.41;5006292;28;20112;-69
2021/09/22 08:26:34;;;;;;;27.77;14.75;;;15.10;92.20;;;14.44;86.29;101931.47;4970826;28;20124;-69
2021/09/22 08:29:03;;;;;;;26.85;16.73;;;15.20;91.60;;;14.53;86.41;101924.94;5008142;28;20530;-69
2021/09/22 08:31:33;;;;;;;27.48;15.65;;;15.20;91.60;;;14.59;85.52;101921.50;5005716;28;20045;-69
2021/09/22 08:36:44;;;;;;;27.65;15.23;;;15.40;90.90;;;14.58;83.94;101925.31;5015078;28;20054;-69
2021/09/22 08:39:15;;;;;;;31.67;16.13;;;15.40;89.60;;;14.61;85.16;101926.81;5007667;28;20122;-70
2021/09/22 08:41:46;;;;;;;24.13;14.45;;;15.50;90.60;;;14.67;85.51;101920.63;5007835;28;20056;-69
2021/09/22 08:44:15;;;;;;;26.60;14.50;;;15.60;90.60;;;14.69;84.96;101921.31;5024055;28;20050;-69
2021/09/22 08:46:47;;;;;;;31.67;14.30;;;15.60;90.20;;;14.79;84.96;101919.22;5008984;28;20100;-69
2021/09/22 08:49:16;;;;;;;28.52;15.52;;;15.70;90.40;;;14.85;84.79;101910.28;5006959;28;20092;-69
2021/09/22 08:51:45;;;;;;;27.30;15.23;;;15.80;90.20;;;14.96;84.67;101910.91;5008227;28;20822;-69
2021/09/22 08:54:19;;;;;;;24.00;14.68;;;15.80;89.90;;;15.05;85.58;101904.34;5009034;28;20117;-69
2021/09/22 08:56:48;;;;;;;29.38;15.95;;;16.00;90.60;;;15.09;84.08;101902.94;5007868;28;20053;-69
2021/09/22 08:59:19;;;;;;;26.08;14.32;;;16.00;89.30;;;15.11;83.39;101911.00;5008118;28;20101;-69
2021/09/22 09:02:09;;;;;;;29.98;15.50;;;16.10;89.00;;;15.18;84.33;101904.63;5005340;28;20038;-69
2021/09/22 09:04:39;;;;;;;24.17;14.00;;;16.10;89.40;;;15.21;83.74;101904.25;5006647;28;20164;-69
2021/09/22 09:07:07;;;;;;;30.33;15.68;;;16.20;89.00;;;15.21;83.81;101909.75;4990617;28;20683;-69
2021/09/22 09:09:37;;;;;;;25.58;15.57;;;16.30;88.80;;;15.21;83.26;101901.53;5007370;28;20061;-69
2021/09/22 09:12:18;;;;;;;25.02;14.75;;;16.30;88.30;;;15.26;83.21;101895.47;4991910;23;20061;-68
2021/09/22 09:14:52;;;;;;;24.80;15.05;;;16.40;88.10;;;15.30;83.06;101891.31;4989396;28;20058;-68
2021/09/22 09:17:40;;;;;;;28.05;16.60;;;16.40;88.20;;;15.33;81.10;101895.63;4995502;28;20688;-70
2021/09/22 09:20:20;;;;;;;23.92;13.90;;;16.50;86.80;;;15.36;82.21;101890.59;5006415;28;20045;-68
2021/09/22 09:25:57;;;;;;;28.85;14.02;;;16.50;87.70;;;15.52;82.10;101889.63;4995215;28;20050;-69
2021/09/22 09:28:28;;;;;;;30.55;15.15;;;16.60;87.60;;;15.53;81.67;101890.47;5007418;28;20089;-69
2021/09/22 09:30:58;;;;;;;24.95;14.23;;;16.70;87.00;;;15.54;81.33;101893.03;4999807;28;20115;-69
2021/09/22 09:33:56;;;;;;;26.08;14.82;;;16.70;86.40;;;15.58;81.99;101894.38;4990127;28;20651;-68
2021/09/22 09:36:31;;;;;;;20.05;12.50;;;16.70;87.20;;;15.69;83.24;101894.97;4990043;28;20050;-68
2021/09/22 09:39:08;;;;;;;26.75;13.77;;;16.80;88.10;;;15.73;81.70;101891.72;4988388;28;20054;-68
2021/09/22 09:41:52;;;;;;;28.70;14.80;;;16.90;87.10;;;15.78;80.98;101886.53;4990440;28;20045;-67
2021/09/22 09:44:36;;;;;;;30.50;15.15;;;16.90;86.20;;;15.83;79.34;101884.06;5009316;28;20502;-68
2021/09/22 09:47:09;;;;;;;24.77;14.85;;;16.90;85.40;;;15.87;80.34;101889.19;5008102;28;20054;-68
2021/09/22 09:49:43;;;;;;;25.10;14.93;;;17.00;86.00;;;15.94;80.36;101882.78;5008776;28;20061;-68
2021/09/22 09:52:13;;;;;;;22.35;14.02;;;17.00;85.90;;;15.98;79.65;101873.13;5009539;28;20052;-68
2021/09/22 09:54:52;;;;;;;22.20;13.55;;;17.10;85.30;;;16.02;80.46;101870.84;5009307;28;20144;-67
2021/09/22 09:57:23;;;;;;;25.30;14.57;;;17.10;86.00;;;16.05;80.16;101867.75;4990347;28;20086;-68
2021/09/22 09:59:53;;;;;;;26.80;15.18;;;17.20;85.40;;;16.08;80.21;101863.75;4987707;28;20509;-68
2021/09/22 10:02:26;;;;;;;23.50;14.25;;;17.20;85.60;;;16.03;78.08;101870.69;4989539;28;20842;-67
2021/09/22 10:05:00;;;;;;;27.85;15.20;;;17.20;83.50;;;16.03;78.11;101858.84;4989054;28;20070;-68
2021/09/22 10:07:34;;;;;;;25.65;13.90;;;17.30;84.00;;;16.01;76.27;101864.53;4989214;28;20054;-68
2021/09/22 10:10:02;;;;;;;22.85;13.35;;;17.20;82.50;;;16.03;77.80;101865.19;5002209;28;20049;-67
2021/09/22 10:12:32;;;;;;;20.52;12.35;;;17.30;83.80;;;16.05;78.20;101867.75;4999315;28;20719;-67
2021/09/22 10:15:02;;;;;;;22.20;11.20;;;17.30;83.80;;;16.03;77.11;101859.69;5007534;28;20050;-68
2021/09/22 10:17:33;;;;;;;21.15;13.13;;;17.30;82.90;;;16.00;75.92;101854.56;5008057;28;20052;-67
2021/09/22 10:20:03;;;;;;;22.23;11.07;;;17.30;81.80;;;15.99;76.69;101865.72;4989433;28;20042;-67
2021/09/22 10:22:31;;;;;;;20.88;12.38;;;17.30;82.50;;;15.99;76.34;101855.63;4987081;28;20046;-67
2021/09/22 10:25:03;;;;;;;17.67;11.10;;;17.30;82.10;;;15.99;75.82;101855.63;5002913;28;20506;-67
2021/09/22 10:30:27;;;;;;;16.08;10.50;;;17.30;81.60;;;16.02;74.71;101851.63;4992046;28;20467;-68
2021/09/22 10:57:46;;;;;;;19.02;9.05;;;17.40;76.70;;;15.96;68.05;101833.16;5067995;28;20036;-68
2021/09/22 11:00:22;;;;;;;19.05;10.35;;;17.40;75.70;;;16.00;70.18;101827.09;5085154;28;20044;-68
2021/09/22 11:05:57;;;;;;;15.18;9.20;;;17.40;77.20;;;16.07;69.14;101831.84;5055431;28;20740;-68
2021/09/22 11:08:35;;;;;;;15.18;8.80;;;17.40;76.10;;;16.06;69.92;101820.00;5065143;28;20411;-68
2021/09/22 11:11:02;;;;;;;16.25;9.02;;;17.50;76.80;;;16.08;69.83;101817.06;5066995;28;20067;-68
2021/09/22 11:13:38;;;;;;;16.95;9.68;;;17.50;76.60;;;16.11;69.85;101811.22;5085714;28;20036;-70
2021/09/22 11:16:17;;;;;;;17.27;9.70;;;17.50;76.60;;;16.16;69.37;101803.22;5085782;28;20048;-69
2021/09/22 11:18:51;;;;;;;17.67;10.27;;;17.60;76.40;;;16.17;69.85;101799.47;5084781;28;20060;-69
2021/09/22 11:21:23;;;;;;;16.77;8.13;;;17.60;76.70;;;16.16;67.92;101798.63;5085719;28;20508;-70
2021/09/22 11:23:52;;;;;;;15.43;8.85;;;17.60;75.00;;;16.19;68.41;101795.47;5087065;28;20056;-70
2021/09/22 11:26:19;;;;;;;14.07;8.35;;;17.60;75.50;;;16.21;68.55;101800.78;5086260;28;20083;-70
2021/09/22 11:28:53;;;;;;;14.20;8.45;;;17.60;75.70;;;16.24;68.35;101800.41;5085760;28;20071;-68
2021/09/22 11:31:22;;;;;;;14.80;8.60;;;17.60;75.50;;;16.27;68.16;101793.66;5085811;28;20036;-69
2021/09/22 11:33:57;;;;;;;14.30;8.57;;;17.70;75.40;;;16.30;69.59;101788.66;5086253;28;20076;-68
2021/09/22 11:36:28;;;;;;;16.40;9.68;;;17.70;76.50;;;16.29;67.25;101781.44;5086547;28;20083;-68